createdAt,value
2023-02-15T00:00:34.880Z,77.50
2023-02-15T00:03:01.401Z,77.22
2023-02-15T00:05:28.055Z,77.04
2023-02-15T00:07:54.488Z,77.04
2023-02-15T00:10:20.981Z,76.88
2023-02-15T00:12:47.444Z,77.26
2023-02-15T00:15:14.131Z,77.46
2023-02-15T00:17:40.688Z,77.66
2023-02-15T00:20:07.348Z,77.39
2023-02-15T00:22:33.762Z,77.43
2023-02-15T00:25:00.359Z,77.70
2023-02-15T00:27:30.893Z,77.79
2023-02-15T00:29:57.379Z,78.13
2023-02-15T00:32:23.903Z,77.68
2023-02-15T00:34:50.347Z,77.79
2023-02-15T00:37:16.846Z,77.72
2023-02-15T00:39:43.308Z,77.91
2023-02-15T00:42:09.761Z,77.79
2023-02-15T00:44:36.206Z,77.78
2023-02-15T00:47:02.672Z,77.90
2023-02-15T00:49:29.114Z,77.87
2023-02-15T00:51:55.546Z,77.43
2023-02-15T00:54:22.003Z,77.63
2023-02-15T00:56:48.902Z,77.25
2023-02-15T00:59:15.319Z,77.38
2023-02-15T01:01:41.848Z,77.44
2023-02-15T01:04:08.493Z,77.68
2023-02-15T01:06:35.053Z,77.41
2023-02-15T01:09:01.559Z,77.34
2023-02-15T01:11:27.989Z,77.14
2023-02-15T01:13:55.329Z,77.58
2023-02-15T01:16:22.083Z,77.45
2023-02-15T01:18:48.662Z,77.14
2023-02-15T01:21:15.982Z,77.51
2023-02-15T01:23:43.038Z,77.46
2023-02-15T01:26:09.822Z,77.83
2023-02-15T01:28:36.363Z,77.53
2023-02-15T01:31:07.043Z,77.24
2023-02-15T01:33:33.578Z,77.39
2023-02-15T01:36:00.307Z,77.16
2023-02-15T01:38:27.105Z,77.32
2023-02-15T01:40:53.936Z,77.09
2023-02-15T01:43:20.372Z,76.66
2023-02-15T01:45:48.388Z,76.90
2023-02-15T01:48:14.887Z,76.53
2023-02-15T01:50:45.522Z,76.53
2023-02-15T01:53:17.793Z,76.55
2023-02-15T01:55:46.796Z,76.88
2023-02-15T01:58:13.565Z,76.78
2023-02-15T02:00:40.020Z,77.04
2023-02-15T02:03:06.472Z,77.10
2023-02-15T02:05:32.968Z,77.29
2023-02-15T02:07:59.747Z,77.23
2023-02-15T02:10:26.283Z,77.50
2023-02-15T02:12:54.014Z,77.75
2023-02-15T02:15:21.659Z,78.07
2023-02-15T02:17:56.110Z,77.96
2023-02-15T02:20:28.638Z,77.81
2023-02-15T02:22:55.053Z,78.24
2023-02-15T02:25:50.064Z,78.17
2023-02-15T02:28:16.506Z,77.81
2023-02-15T02:30:42.939Z,77.98
2023-02-15T02:33:20.551Z,77.50
2023-02-15T02:35:53.071Z,77.10
2023-02-15T02:38:28.754Z,77.34
2023-02-15T02:41:01.606Z,77.59
2023-02-15T02:43:34.210Z,77.89
2023-02-15T02:46:02.717Z,78.31
2023-02-15T02:48:30.620Z,78.14
2023-02-15T02:50:57.060Z,78.53
2023-02-15T02:53:23.520Z,78.49
2023-02-15T02:55:49.985Z,78.10
2023-02-15T02:58:34.793Z,78.24
2023-02-15T03:01:11.459Z,78.61
2023-02-15T03:03:38.845Z,78.45
2023-02-15T03:06:07.689Z,78.19
2023-02-15T03:08:36.403Z,78.24
2023-02-15T03:11:02.928Z,77.59
2023-02-15T03:13:29.407Z,77.76
2023-02-15T03:16:14.646Z,77.65
2023-02-15T03:18:53.681Z,77.68
2023-02-15T03:21:23.249Z,77.71
2023-02-15T03:23:53.915Z,77.70
2023-02-15T03:26:20.392Z,77.98
2023-02-15T03:28:46.982Z,77.90
2023-02-15T03:31:13.563Z,77.95
2023-02-15T03:33:41.676Z,77.88
2023-02-15T03:36:11.209Z,78.01
2023-02-15T03:38:40.725Z,78.39
2023-02-15T03:41:10.334Z,78.15
2023-02-15T03:43:45.979Z,78.06
2023-02-15T03:46:12.509Z,77.84
2023-02-15T03:48:43.139Z,77.72
2023-02-15T03:51:28.754Z,77.67
2023-02-15T03:53:55.317Z,77.79
2023-02-15T03:56:21.933Z,77.86
2023-02-15T03:59:07.109Z,78.03
2023-02-15T04:01:58.947Z,78.25
2023-02-15T04:04:35.965Z,78.31
2023-02-15T04:07:02.589Z,78.63
2023-02-15T04:09:47.872Z,78.44
2023-02-15T04:12:14.408Z,78.13
2023-02-15T04:14:59.502Z,77.70
2023-02-15T04:17:25.966Z,77.81
2023-02-15T04:20:11.151Z,77.78
2023-02-15T04:22:56.132Z,78.09
2023-02-15T04:25:22.605Z,77.92
2023-02-15T04:27:49.898Z,77.97
2023-02-15T04:30:16.770Z,78.21
2023-02-15T04:32:43.460Z,78.17
2023-02-15T04:35:10.410Z,78.44
2023-02-15T04:37:36.899Z,78.62
2023-02-15T04:40:03.933Z,78.70
2023-02-15T04:42:30.348Z,78.54
2023-02-15T04:44:56.794Z,78.82
2023-02-15T04:47:23.406Z,78.66
2023-02-15T04:49:49.942Z,78.52
2023-02-15T04:52:18.193Z,78.25
2023-02-15T04:54:45.197Z,78.17
2023-02-15T04:57:11.656Z,78.17
2023-02-15T04:59:38.069Z,77.96
2023-02-15T05:02:04.556Z,78.06
2023-02-15T05:04:31.130Z,78.07
2023-02-15T05:06:57.602Z,78.06
2023-02-15T05:09:24.155Z,78.15
2023-02-15T05:11:50.567Z,77.89
2023-02-15T05:14:17.042Z,77.94
2023-02-15T05:16:43.628Z,77.98
2023-02-15T05:19:10.144Z,78.02
2023-02-15T05:21:36.813Z,77.82
2023-02-15T05:24:23.435Z,77.94
2023-02-15T05:27:08.505Z,78.00
2023-02-15T05:29:34.961Z,77.69
2023-02-15T05:32:01.520Z,77.75
2023-02-15T05:34:28.205Z,77.54
2023-02-15T05:36:54.743Z,77.63
2023-02-15T05:39:21.182Z,77.71
2023-02-15T05:41:47.640Z,77.51
2023-02-15T05:44:14.283Z,77.73
2023-02-15T05:46:40.726Z,77.66
2023-02-15T05:49:07.369Z,77.67
2023-02-15T05:51:34.288Z,77.35
2023-02-15T05:54:00.915Z,77.47
2023-02-15T05:56:27.382Z,77.32
2023-02-15T05:58:53.930Z,77.16
2023-02-15T06:01:22.839Z,77.49
2023-02-15T06:03:49.399Z,77.55
2023-02-15T06:06:15.990Z,77.35
2023-02-15T06:08:42.423Z,77.42
2023-02-15T06:11:09.053Z,77.47
2023-02-15T06:13:38.332Z,77.50
2023-02-15T06:16:05.581Z,77.46
2023-02-15T06:18:46.650Z,77.33
2023-02-15T06:21:13.271Z,77.05
2023-02-15T06:23:39.686Z,77.06
2023-02-15T06:26:06.141Z,77.08
2023-02-15T06:28:32.588Z,77.32
2023-02-15T06:30:59.122Z,77.26
2023-02-15T06:33:25.592Z,77.46
2023-02-15T06:35:52.281Z,77.42
2023-02-15T06:38:18.980Z,77.19
2023-02-15T06:40:45.798Z,77.21
2023-02-15T06:43:12.235Z,77.05
2023-02-15T06:45:38.843Z,77.23
2023-02-15T06:48:19.508Z,77.10
2023-02-15T06:50:45.975Z,77.26
2023-02-15T06:53:12.384Z,77.13
2023-02-15T06:55:38.841Z,77.11
2023-02-15T06:58:05.325Z,77.21
2023-02-15T07:00:31.766Z,77.35
2023-02-15T07:02:58.903Z,77.26
2023-02-15T07:05:32.276Z,77.11
2023-02-15T07:07:59.196Z,77.52
2023-02-15T07:10:26.319Z,77.44
2023-02-15T07:12:52.933Z,77.46
2023-02-15T07:15:21.643Z,77.26
2023-02-15T07:17:48.283Z,77.16
2023-02-15T07:20:15.899Z,77.19
2023-02-15T07:22:42.572Z,77.08
2023-02-15T07:25:09.317Z,77.01
2023-02-15T07:27:35.781Z,77.42
2023-02-15T07:30:02.330Z,77.62
2023-02-15T07:32:30.038Z,77.10
2023-02-15T07:34:56.793Z,77.45
2023-02-15T07:37:23.314Z,77.36
2023-02-15T07:39:49.976Z,77.65
2023-02-15T07:42:16.451Z,77.00
2023-02-15T07:44:42.945Z,76.39
2023-02-15T07:47:09.567Z,76.61
2023-02-15T07:49:36.020Z,76.65
2023-02-15T07:52:02.876Z,76.97
2023-02-15T07:54:29.531Z,76.85
2023-02-15T07:56:56.128Z,77.12
2023-02-15T07:59:22.869Z,77.06
2023-02-15T08:01:49.364Z,75.50
2023-02-15T08:04:16.009Z,68.32
2023-02-15T08:06:42.447Z,67.43
2023-02-15T08:09:09.092Z,64.85
2023-02-15T08:11:36.200Z,58.56
2023-02-15T08:14:04.903Z,56.53
2023-02-15T08:16:41.791Z,54.69
2023-02-15T08:19:08.246Z,55.05
2023-02-15T08:21:35.084Z,47.79
2023-02-15T08:24:01.646Z,46.88
2023-02-15T08:26:28.525Z,43.23
2023-02-15T08:28:55.026Z,44.14
2023-02-15T08:31:21.606Z,41.73
2023-02-15T08:33:48.423Z,36.96
2023-02-15T08:36:16.327Z,36.50
2023-02-15T08:38:42.940Z,35.00
2023-02-15T08:41:10.449Z,34.00
2023-02-15T08:43:36.873Z,31.15
2023-02-15T08:46:03.449Z,31.45
2023-02-15T08:48:29.987Z,30.29
2023-02-15T08:50:56.512Z,28.99
2023-02-15T08:53:23.006Z,28.22
2023-02-15T08:55:59.015Z,28.73
2023-02-15T08:58:25.509Z,29.43
2023-02-15T09:00:52.335Z,27.98
2023-02-15T09:03:18.856Z,27.90
2023-02-15T09:05:45.306Z,27.02
2023-02-15T09:08:11.754Z,27.16
2023-02-15T09:10:38.195Z,27.89
2023-02-15T09:13:04.832Z,29.27
2023-02-15T09:15:31.670Z,30.43
2023-02-15T09:18:00.197Z,31.74
2023-02-15T09:20:26.806Z,33.16
2023-02-15T09:22:56.984Z,35.33
2023-02-15T09:25:24.790Z,37.15
2023-02-15T09:27:51.217Z,39.35
2023-02-15T09:30:17.829Z,41.29
2023-02-15T09:32:44.367Z,42.13
2023-02-15T09:35:10.789Z,43.62
2023-02-15T09:37:37.261Z,45.92
2023-02-15T09:40:03.952Z,46.23
2023-02-15T09:42:37.265Z,48.14
2023-02-15T09:45:18.215Z,48.91
2023-02-15T09:47:48.218Z,49.32
2023-02-15T09:50:29.967Z,51.03
2023-02-15T09:53:15.582Z,50.57
2023-02-15T09:55:42.113Z,51.79
2023-02-15T09:58:17.492Z,51.94
2023-02-15T10:00:47.058Z,52.74
2023-02-15T10:03:23.392Z,53.27
2023-02-15T10:05:49.890Z,53.92
2023-02-15T10:08:19.430Z,53.58
2023-02-15T10:10:55.013Z,53.62
2023-02-15T10:13:31.595Z,53.50
2023-02-15T10:16:16.743Z,53.78
2023-02-15T10:18:49.336Z,54.14
2023-02-15T10:21:30.342Z,53.39
2023-02-15T10:24:29.219Z,53.86
2023-02-15T10:27:14.222Z,54.05
2023-02-15T10:29:44.309Z,53.81
2023-02-15T10:32:20.092Z,53.60
2023-02-15T10:35:02.940Z,54.20
2023-02-15T10:37:33.449Z,54.60
2023-02-15T10:40:02.991Z,53.96
2023-02-15T10:42:42.817Z,54.39
2023-02-15T10:45:09.306Z,53.44
2023-02-15T10:47:44.434Z,54.65
2023-02-15T10:50:14.003Z,54.01
2023-02-15T10:52:40.677Z,54.53
2023-02-15T10:55:07.147Z,54.08
2023-02-15T10:57:39.782Z,54.13
2023-02-15T11:00:10.930Z,54.42
2023-02-15T11:02:41.706Z,54.33
2023-02-15T11:05:11.207Z,54.38
2023-02-15T11:07:41.926Z,54.19
2023-02-15T11:10:16.750Z,54.36
2023-02-15T11:12:44.770Z,53.92
2023-02-15T11:15:13.616Z,54.19
2023-02-15T11:17:40.953Z,53.82
2023-02-15T11:20:20.151Z,55.03
2023-02-15T11:22:48.558Z,53.13
2023-02-15T11:25:35.290Z,53.88
2023-02-15T11:28:03.997Z,53.81
2023-02-15T11:30:42.131Z,50.60
2023-02-15T11:33:18.179Z,50.47
2023-02-15T11:35:50.379Z,50.59
2023-02-15T11:38:21.376Z,50.39
2023-02-15T11:40:52.660Z,49.24
2023-02-15T11:43:42.450Z,50.39
2023-02-15T11:46:11.268Z,51.07
2023-02-15T11:48:50.609Z,52.02
2023-02-15T11:51:17.907Z,52.74
2023-02-15T11:53:44.756Z,50.45
2023-02-15T11:56:17.932Z,52.29
2023-02-15T11:58:45.961Z,51.42
2023-02-15T12:01:14.441Z,48.99
2023-02-15T12:03:45.637Z,50.77
2023-02-15T12:06:17.761Z,51.04
2023-02-15T12:08:45.463Z,52.12
2023-02-15T12:11:18.680Z,51.91
2023-02-15T12:14:01.516Z,52.33
2023-02-15T12:16:48.066Z,49.91
2023-02-15T12:19:35.138Z,51.02
2023-02-15T12:22:32.801Z,50.25
2023-02-15T12:25:00.550Z,51.73
2023-02-15T12:27:30.828Z,50.97
2023-02-15T12:30:19.921Z,52.79
2023-02-15T12:32:54.042Z,53.60
2023-02-15T12:35:26.847Z,52.09
2023-02-15T12:37:53.975Z,51.91
2023-02-15T12:40:21.588Z,50.19
2023-02-15T12:42:48.055Z,51.11
2023-02-15T12:45:25.667Z,51.47
2023-02-15T12:48:10.531Z,50.86
2023-02-15T12:50:37.199Z,52.48
2023-02-15T12:53:14.396Z,52.22
2023-02-15T12:55:46.089Z,51.80
2023-02-15T12:58:26.371Z,53.04
2023-02-15T13:01:03.336Z,50.90
2023-02-15T13:03:29.989Z,52.09
2023-02-15T13:05:56.580Z,52.96
2023-02-15T13:08:27.023Z,52.31
2023-02-15T13:10:57.502Z,52.67
2023-02-15T13:13:30.960Z,52.40
2023-02-15T13:15:59.799Z,52.50
2023-02-15T13:18:35.936Z,51.19
2023-02-15T13:21:22.472Z,51.03
2023-02-15T13:23:49.756Z,51.50
2023-02-15T13:26:17.491Z,52.40
2023-02-15T13:28:45.773Z,52.40
2023-02-15T13:31:15.968Z,52.58
2023-02-15T13:33:43.686Z,51.19
2023-02-15T13:36:40.513Z,52.80
2023-02-15T13:39:11.737Z,53.07
2023-02-15T13:41:38.166Z,53.93
2023-02-15T13:44:04.762Z,52.25
2023-02-15T13:46:46.613Z,53.89
2023-02-15T13:49:22.941Z,53.65
2023-02-15T13:51:59.694Z,54.18
2023-02-15T13:54:29.819Z,53.08
2023-02-15T13:57:02.196Z,53.59
2023-02-15T13:59:39.666Z,52.99
2023-02-15T14:02:24.706Z,52.81
2023-02-15T14:04:58.815Z,52.90
2023-02-15T14:07:25.253Z,52.69
2023-02-15T14:09:51.729Z,53.46
2023-02-15T14:12:24.292Z,53.14
2023-02-15T14:15:07.684Z,53.34
2023-02-15T14:17:49.294Z,53.05
2023-02-15T14:20:28.081Z,52.96
2023-02-15T14:23:17.472Z,54.08
2023-02-15T14:25:49.574Z,53.85
2023-02-15T14:28:22.955Z,53.50
2023-02-15T14:30:49.891Z,54.06
2023-02-15T14:33:19.375Z,53.71
2023-02-15T14:35:45.874Z,54.18
2023-02-15T14:38:37.514Z,54.57
2023-02-15T14:41:18.351Z,53.16
2023-02-15T14:43:51.115Z,53.24
2023-02-15T14:46:17.551Z,53.44
2023-02-15T14:48:44.059Z,53.17
2023-02-15T14:51:10.809Z,53.12
2023-02-15T14:53:39.368Z,54.10
2023-02-15T14:56:08.444Z,53.25
2023-02-15T14:58:34.946Z,53.06
2023-02-15T15:01:08.817Z,53.15
2023-02-15T15:03:36.603Z,53.67
2023-02-15T15:06:05.731Z,54.18
2023-02-15T15:08:36.282Z,54.10
2023-02-15T15:11:41.119Z,54.18
2023-02-15T15:14:09.428Z,54.68
2023-02-15T15:16:39.123Z,53.86
2023-02-15T15:19:07.287Z,54.81
2023-02-15T15:21:53.233Z,54.75
2023-02-15T15:24:38.169Z,54.34
2023-02-15T15:27:23.392Z,55.05
2023-02-15T15:29:49.835Z,54.84
2023-02-15T15:32:16.478Z,54.96
2023-02-15T15:35:12.581Z,55.50
2023-02-15T15:37:45.868Z,55.70
2023-02-15T15:40:31.321Z,55.96
2023-02-15T15:43:13.175Z,55.67
2023-02-15T15:45:48.259Z,55.97
2023-02-15T15:48:14.746Z,55.85
2023-02-15T15:50:41.626Z,56.15
2023-02-15T15:53:08.162Z,56.32
2023-02-15T15:55:34.660Z,56.03
2023-02-15T15:58:02.441Z,56.64
2023-02-15T16:00:28.923Z,57.45
2023-02-15T16:02:57.036Z,57.38
2023-02-15T16:05:23.702Z,57.25
2023-02-15T16:07:50.432Z,57.32
2023-02-15T16:10:26.799Z,57.70
2023-02-15T16:12:53.368Z,59.25
2023-02-15T16:15:32.335Z,58.66
2023-02-15T16:18:01.959Z,58.87
2023-02-15T16:20:30.225Z,59.02
2023-02-15T16:22:59.949Z,58.69
2023-02-15T16:25:28.702Z,59.39
2023-02-15T16:27:55.114Z,60.29
2023-02-15T16:30:24.689Z,60.31
2023-02-15T16:33:03.562Z,60.69
2023-02-15T16:35:30.033Z,61.15
2023-02-15T16:37:56.452Z,61.04
2023-02-15T16:40:26.310Z,60.93
2023-02-15T16:42:52.986Z,61.22
2023-02-15T16:45:19.833Z,61.34
2023-02-15T16:47:48.106Z,62.52
2023-02-15T16:50:18.653Z,62.40
2023-02-15T16:52:45.092Z,62.53
2023-02-15T16:55:17.901Z,64.54
2023-02-15T16:57:44.463Z,65.00
2023-02-15T17:00:21.622Z,64.56
2023-02-15T17:03:01.179Z,65.47
2023-02-15T17:05:34.540Z,66.38
2023-02-15T17:08:04.420Z,66.80
2023-02-15T17:10:30.914Z,67.65
2023-02-15T17:13:01.419Z,67.90
2023-02-15T17:15:31.575Z,68.28
2023-02-15T17:18:02.292Z,69.22
2023-02-15T17:20:28.734Z,69.16
2023-02-15T17:22:55.171Z,69.40
2023-02-15T17:25:22.334Z,69.75
2023-02-15T17:27:52.654Z,69.69
2023-02-15T17:30:24.664Z,69.65
2023-02-15T17:32:55.041Z,69.94
2023-02-15T17:35:22.809Z,69.67
2023-02-15T17:37:49.686Z,69.32
2023-02-15T17:40:16.090Z,70.65
2023-02-15T17:42:42.517Z,70.82
2023-02-15T17:45:11.555Z,71.27
2023-02-15T17:47:38.965Z,71.34
2023-02-15T17:50:05.706Z,71.09
2023-02-15T17:52:32.297Z,70.82
2023-02-15T17:55:17.474Z,71.11
2023-02-15T17:57:44.004Z,71.10
2023-02-15T18:00:32.278Z,71.04
2023-02-15T18:03:17.589Z,71.27
2023-02-15T18:06:02.670Z,71.61
2023-02-15T18:08:47.892Z,71.48
2023-02-15T18:11:33.137Z,71.43
2023-02-15T18:14:01.582Z,71.41
2023-02-15T18:16:29.334Z,71.64
2023-02-15T18:18:56.087Z,71.40
2023-02-15T18:21:23.392Z,71.53
2023-02-15T18:23:50.315Z,71.75
2023-02-15T18:26:20.729Z,71.52
2023-02-15T18:28:47.615Z,71.78
2023-02-15T18:31:14.151Z,71.83
2023-02-15T18:33:44.785Z,72.13
2023-02-15T18:36:30.859Z,72.41
2023-02-15T18:38:57.928Z,72.38
2023-02-15T18:41:24.405Z,72.01
2023-02-15T18:43:51.111Z,71.94
2023-02-15T18:46:17.988Z,71.85
2023-02-15T18:48:44.709Z,71.62
2023-02-15T18:51:21.064Z,71.52
2023-02-15T18:53:47.691Z,71.63
2023-02-15T18:56:17.916Z,71.43
2023-02-15T18:58:46.806Z,71.16
2023-02-15T19:01:16.769Z,71.12
2023-02-15T19:03:47.067Z,71.41
2023-02-15T19:06:13.739Z,71.32
2023-02-15T19:08:40.314Z,71.90
2023-02-15T19:11:09.556Z,71.80
2023-02-15T19:13:36.330Z,71.96
2023-02-15T19:16:05.012Z,71.64
2023-02-15T19:18:31.781Z,72.04
2023-02-15T19:20:58.191Z,71.94
2023-02-15T19:23:24.691Z,72.15
2023-02-15T19:25:51.316Z,72.09
2023-02-15T19:28:44.190Z,72.11
2023-02-15T19:31:14.291Z,72.79
2023-02-15T19:33:41.249Z,72.99
2023-02-15T19:36:11.062Z,73.08
2023-02-15T19:38:37.675Z,73.08
2023-02-15T19:41:08.408Z,72.90
2023-02-15T19:43:43.092Z,73.34
2023-02-15T19:46:11.699Z,73.60
2023-02-15T19:48:38.171Z,73.95
2023-02-15T19:51:04.608Z,73.92
2023-02-15T19:53:31.036Z,74.67
2023-02-15T19:55:57.566Z,74.94
2023-02-15T19:58:24.129Z,75.01
2023-02-15T20:00:50.879Z,75.57
2023-02-15T20:03:17.418Z,75.64
2023-02-15T20:05:44.056Z,76.20
2023-02-15T20:08:22.055Z,76.32
2023-02-15T20:10:48.666Z,76.48
2023-02-15T20:13:15.953Z,76.08
2023-02-15T20:15:42.865Z,76.16
2023-02-15T20:18:09.427Z,76.98
2023-02-15T20:20:43.526Z,77.23
2023-02-15T20:23:31.135Z,77.53
2023-02-15T20:25:58.460Z,77.35
2023-02-15T20:28:25.693Z,77.78
2023-02-15T20:30:52.302Z,77.95
2023-02-15T20:33:19.214Z,77.71
2023-02-15T20:35:45.904Z,77.60
2023-02-15T20:38:15.745Z,78.09
2023-02-15T20:41:02.494Z,77.76
2023-02-15T20:43:29.136Z,77.28
2023-02-15T20:45:55.696Z,77.10
2023-02-15T20:48:22.153Z,76.48
2023-02-15T20:50:48.606Z,76.48
2023-02-15T20:53:15.065Z,76.54
2023-02-15T20:55:41.474Z,76.79
2023-02-15T20:58:30.092Z,76.82
2023-02-15T21:00:57.649Z,76.60
2023-02-15T21:03:26.440Z,76.81
2023-02-15T21:05:52.959Z,76.72
2023-02-15T21:08:20.258Z,76.54
2023-02-15T21:10:48.094Z,76.17
2023-02-15T21:13:28.882Z,76.48
2023-02-15T21:15:55.550Z,75.76
2023-02-15T21:18:23.059Z,76.08
2023-02-15T21:20:51.607Z,76.01
2023-02-15T21:23:19.401Z,75.93
2023-02-15T21:25:46.524Z,76.11
2023-02-15T21:28:16.218Z,76.41
2023-02-15T21:30:42.669Z,76.23
2023-02-15T21:33:09.705Z,75.60
2023-02-15T21:35:37.729Z,75.47
2023-02-15T21:38:04.176Z,75.60
2023-02-15T21:40:31.014Z,76.04
2023-02-15T21:43:16.834Z,75.60
2023-02-15T21:46:02.147Z,75.94
2023-02-15T21:48:29.239Z,76.12
2023-02-15T21:51:14.739Z,76.12
2023-02-15T21:53:46.084Z,75.89
2023-02-15T21:56:14.213Z,76.25
2023-02-15T21:58:43.897Z,76.17
2023-02-15T22:01:36.817Z,76.68
2023-02-15T22:04:03.434Z,76.02
2023-02-15T22:06:29.877Z,76.12
2023-02-15T22:08:56.315Z,76.13
2023-02-15T22:11:22.779Z,76.29
2023-02-15T22:13:49.471Z,76.50
2023-02-15T22:16:16.715Z,76.68
2023-02-15T22:18:43.260Z,76.29
2023-02-15T22:21:10.100Z,76.26
2023-02-15T22:23:36.554Z,76.34
2023-02-15T22:26:04.414Z,76.71
2023-02-15T22:28:31.721Z,76.18
2023-02-15T22:30:58.245Z,76.04
2023-02-15T22:33:26.429Z,76.63
2023-02-15T22:35:53.059Z,76.19
2023-02-15T22:38:19.656Z,76.02
2023-02-15T22:40:46.749Z,75.56
2023-02-15T22:43:17.495Z,75.97
2023-02-15T22:45:44.044Z,75.78
2023-02-15T22:48:10.475Z,75.79
2023-02-15T22:50:37.904Z,75.80
2023-02-15T22:53:04.435Z,76.25
2023-02-15T22:55:32.092Z,76.67
2023-02-15T22:57:58.524Z,76.34
2023-02-15T23:00:26.282Z,76.90
2023-02-15T23:02:53.086Z,76.96
2023-02-15T23:05:20.527Z,77.34
2023-02-15T23:07:47.790Z,77.10
2023-02-15T23:10:21.279Z,77.36
2023-02-15T23:13:06.943Z,76.76
2023-02-15T23:15:33.635Z,77.23
2023-02-15T23:18:17.348Z,77.10
2023-02-15T23:20:44.736Z,78.08
2023-02-15T23:23:11.601Z,78.41
2023-02-15T23:25:38.324Z,78.33
2023-02-15T23:28:05.243Z,78.61
2023-02-15T23:30:31.715Z,78.78
2023-02-15T23:32:58.335Z,78.77
2023-02-15T23:35:24.932Z,79.20
2023-02-15T23:37:51.396Z,79.34
2023-02-15T23:40:37.056Z,79.68
2023-02-15T23:43:03.567Z,79.52
2023-02-15T23:45:30.194Z,79.64
2023-02-15T23:48:15.460Z,79.58
2023-02-15T23:50:42.017Z,79.45
2023-02-15T23:53:09.236Z,80.40
2023-02-15T23:55:36.478Z,80.55
2023-02-15T23:58:03.739Z,80.10
